createdAt,value
2023-05-21T00:00:53.856Z,3.50
2023-05-21T00:03:22.053Z,5.88
2023-05-21T00:05:50.299Z,3.22
2023-05-21T00:08:18.390Z,3.28
2023-05-21T00:10:47.696Z,4.47
2023-05-21T00:13:15.468Z,3.20
2023-05-21T00:15:43.512Z,4.40
2023-05-21T00:18:12.051Z,2.17
2023-05-21T00:23:10.361Z,2.60
2023-05-21T00:28:07.280Z,3.78
2023-05-21T00:30:35.100Z,10.30
2023-05-21T00:33:04.124Z,2.80
2023-05-21T00:35:31.890Z,6.80
2023-05-21T00:38:00.169Z,5.20
2023-05-21T00:40:27.854Z,5.47
2023-05-21T00:42:57.204Z,4.03
2023-05-21T00:45:26.416Z,2.90
2023-05-21T00:47:55.548Z,4.13
2023-05-21T00:50:24.261Z,5.10
2023-05-21T00:52:52.093Z,4.27
2023-05-21T00:55:19.954Z,6.70
2023-05-21T00:57:47.763Z,5.00
2023-05-21T01:00:16.432Z,3.20
2023-05-21T01:02:45.784Z,3.87
2023-05-21T01:05:15.434Z,3.23
2023-05-21T01:07:43.470Z,4.33
2023-05-21T01:10:12.674Z,4.07
2023-05-21T01:12:42.930Z,3.53
2023-05-21T01:15:12.007Z,5.40
2023-05-21T01:17:41.475Z,3.67
2023-05-21T01:20:11.801Z,4.93
2023-05-21T01:22:44.639Z,5.27
2023-05-21T01:25:14.931Z,4.27
2023-05-21T01:27:42.731Z,5.03
2023-05-21T01:30:11.482Z,3.58
2023-05-21T01:32:46.242Z,3.17
2023-05-21T01:35:18.455Z,6.37
2023-05-21T01:37:50.333Z,4.60
2023-05-21T01:40:24.858Z,5.20
2023-05-21T01:42:53.122Z,3.80
2023-05-21T01:45:23.487Z,4.60
2023-05-21T01:47:55.427Z,4.63
2023-05-21T01:50:25.755Z,4.27
2023-05-21T01:52:55.216Z,8.50
2023-05-21T01:55:25.408Z,4.90
2023-05-21T01:57:53.894Z,5.17
2023-05-21T02:00:22.522Z,3.17
2023-05-21T02:05:18.359Z,3.97
2023-05-21T02:07:46.487Z,4.22
2023-05-21T02:10:14.515Z,4.25
2023-05-21T02:12:44.172Z,4.47
2023-05-21T02:15:11.916Z,6.03
2023-05-21T02:17:40.637Z,5.40
2023-05-21T02:20:11.531Z,6.40
2023-05-21T02:22:39.893Z,3.83
2023-05-21T02:25:09.267Z,5.90
2023-05-21T02:27:37.722Z,5.33
2023-05-21T02:30:09.151Z,4.88
2023-05-21T02:32:37.457Z,4.07
2023-05-21T02:35:06.041Z,5.70
2023-05-21T02:40:02.440Z,8.95
2023-05-21T02:42:30.119Z,5.22
2023-05-21T02:44:57.800Z,6.50
2023-05-21T02:47:27.246Z,3.90
2023-05-21T02:49:55.836Z,4.57
2023-05-21T02:54:53.467Z,4.00
2023-05-21T02:57:21.340Z,6.20
2023-05-21T02:59:49.137Z,5.55
2023-05-21T03:02:17.009Z,4.60
2023-05-21T03:04:46.983Z,5.97
2023-05-21T03:07:15.190Z,6.60
2023-05-21T03:09:42.994Z,3.72
2023-05-21T03:12:11.565Z,4.30
2023-05-21T03:17:08.015Z,4.90
2023-05-21T03:19:36.486Z,5.03
2023-05-21T03:22:06.166Z,5.07
2023-05-21T03:24:34.389Z,5.40
2023-05-21T03:27:02.140Z,3.60
2023-05-21T03:29:30.026Z,6.07
2023-05-21T03:31:58.155Z,6.00
2023-05-21T03:34:25.967Z,6.00
2023-05-21T03:36:53.806Z,5.80
2023-05-21T03:39:22.963Z,7.97
2023-05-21T03:41:50.695Z,4.30
2023-05-21T03:44:18.454Z,5.47
2023-05-21T03:46:46.444Z,6.22
2023-05-21T03:49:14.801Z,7.35
2023-05-21T03:51:42.567Z,7.90
2023-05-21T03:54:10.421Z,7.45
2023-05-21T03:56:39.524Z,4.43
2023-05-21T03:59:07.307Z,3.53
2023-05-21T04:01:36.256Z,4.63
2023-05-21T04:04:04.161Z,5.40
2023-05-21T04:06:32.082Z,6.22
2023-05-21T04:08:59.832Z,5.10
2023-05-21T04:11:27.658Z,6.28
2023-05-21T04:13:57.082Z,5.43
2023-05-21T04:16:25.135Z,5.10
2023-05-21T04:18:55.427Z,7.93
2023-05-21T04:21:23.386Z,7.23
2023-05-21T04:23:53.912Z,4.78
2023-05-21T04:26:22.805Z,5.60
2023-05-21T04:28:50.524Z,4.07
2023-05-21T04:31:19.666Z,4.10
2023-05-21T04:33:47.508Z,5.13
2023-05-21T04:36:17.228Z,4.45
2023-05-21T04:38:45.029Z,5.77
2023-05-21T04:41:14.804Z,3.42
2023-05-21T04:43:43.971Z,6.17
2023-05-21T04:46:11.887Z,4.70
2023-05-21T04:48:41.144Z,6.25
2023-05-21T04:51:08.937Z,4.07
2023-05-21T04:53:36.778Z,3.95
2023-05-21T04:56:04.688Z,4.97
2023-05-21T04:58:34.288Z,5.88
2023-05-21T05:01:03.270Z,7.27
2023-05-21T05:03:31.332Z,5.67
2023-05-21T05:06:01.470Z,7.38
2023-05-21T05:08:29.185Z,7.77
2023-05-21T05:10:57.015Z,4.20
2023-05-21T05:13:24.774Z,4.55
2023-05-21T05:15:54.741Z,4.97
2023-05-21T05:18:22.659Z,6.57
2023-05-21T05:20:50.453Z,6.82
2023-05-21T05:23:19.566Z,5.60
2023-05-21T05:25:47.461Z,4.70
2023-05-21T05:28:15.280Z,6.53
2023-05-21T05:30:43.063Z,5.65
2023-05-21T05:33:11.529Z,6.70
2023-05-21T05:35:39.421Z,6.05
2023-05-21T05:38:09.012Z,5.80
2023-05-21T05:40:38.195Z,7.17
2023-05-21T05:43:06.014Z,5.80
2023-05-21T05:45:33.797Z,7.32
2023-05-21T05:48:01.874Z,10.88
2023-05-21T05:50:29.694Z,5.45
2023-05-21T05:52:57.466Z,7.20
2023-05-21T05:55:26.793Z,7.32
2023-05-21T05:57:56.029Z,7.37
2023-05-21T06:00:23.862Z,7.87
2023-05-21T06:02:51.722Z,9.05
2023-05-21T06:05:19.536Z,5.47
2023-05-21T06:07:47.429Z,7.18
2023-05-21T06:10:15.196Z,5.40
2023-05-21T06:12:43.020Z,6.93
2023-05-21T06:15:14.913Z,6.53
2023-05-21T06:17:42.774Z,6.90
2023-05-21T06:20:11.596Z,7.90
2023-05-21T06:22:39.415Z,5.70
2023-05-21T06:25:08.258Z,6.10
2023-05-21T06:27:36.044Z,5.37
2023-05-21T06:30:04.608Z,11.55
2023-05-21T06:35:01.627Z,7.50
2023-05-21T06:37:29.394Z,5.63
2023-05-21T06:39:57.187Z,7.20
2023-05-21T06:42:24.884Z,5.90
2023-05-21T06:44:52.610Z,11.73
2023-05-21T06:47:20.958Z,6.90
2023-05-21T06:49:50.042Z,7.72
2023-05-21T06:52:17.748Z,8.73
2023-05-21T06:54:45.452Z,7.47
2023-05-21T06:57:13.206Z,5.50
2023-05-21T06:59:40.926Z,7.80
2023-05-21T07:02:08.868Z,6.35
2023-05-21T07:04:36.876Z,5.93
2023-05-21T07:07:06.440Z,8.55
2023-05-21T07:09:34.160Z,7.93
2023-05-21T07:12:02.276Z,7.28
2023-05-21T07:14:29.958Z,6.40
2023-05-21T07:16:57.771Z,9.57
2023-05-21T07:19:25.698Z,5.85
2023-05-21T07:21:53.502Z,8.95
2023-05-21T07:24:22.684Z,7.22
2023-05-21T07:26:50.393Z,9.23
2023-05-21T07:29:18.214Z,7.10
2023-05-21T07:31:45.942Z,6.28
2023-05-21T07:34:13.738Z,7.40
2023-05-21T07:36:41.451Z,6.07
2023-05-21T07:39:09.267Z,7.10
2023-05-21T07:41:38.457Z,6.57
2023-05-21T07:44:06.244Z,6.47
2023-05-21T07:46:34.023Z,9.65
2023-05-21T07:49:01.787Z,7.43
2023-05-21T07:51:30.001Z,6.10
2023-05-21T07:53:57.832Z,7.03
2023-05-21T07:56:26.633Z,6.28
2023-05-21T07:58:55.849Z,7.72
2023-05-21T08:01:24.001Z,8.03
2023-05-21T08:03:51.888Z,8.52
2023-05-21T08:06:19.866Z,5.75
2023-05-21T08:08:47.632Z,9.45
2023-05-21T08:11:15.480Z,7.35
2023-05-21T08:13:43.172Z,9.38
2023-05-21T08:16:12.482Z,7.80
2023-05-21T08:18:40.236Z,5.90
2023-05-21T08:21:07.983Z,6.32
2023-05-21T08:23:35.732Z,6.57
2023-05-21T08:26:03.498Z,7.13
2023-05-21T08:28:31.557Z,6.20
2023-05-21T08:30:59.325Z,10.05
2023-05-21T08:33:28.775Z,7.55
2023-05-21T08:35:56.560Z,7.10
2023-05-21T08:38:24.376Z,7.35
2023-05-21T08:40:53.145Z,8.95
2023-05-21T08:43:21.333Z,7.18
2023-05-21T08:45:55.058Z,6.45
2023-05-21T08:48:24.334Z,6.47
2023-05-21T08:50:54.430Z,11.60
2023-05-21T08:53:28.050Z,6.10
2023-05-21T08:55:57.465Z,7.22
2023-05-21T08:58:25.749Z,7.97
2023-05-21T09:00:53.625Z,6.07
2023-05-21T09:03:22.473Z,8.60
2023-05-21T09:05:51.227Z,9.48
2023-05-21T09:08:22.726Z,7.40
2023-05-21T09:10:51.974Z,6.15
2023-05-21T09:13:21.055Z,8.10
2023-05-21T09:15:51.468Z,7.05
2023-05-21T09:18:19.423Z,6.85
2023-05-21T09:20:47.213Z,7.13
2023-05-21T09:23:18.807Z,5.93
2023-05-21T09:25:48.937Z,8.60
2023-05-21T09:28:18.093Z,7.32
2023-05-21T09:30:46.778Z,8.90
2023-05-21T09:33:26.075Z,7.53
2023-05-21T09:35:54.176Z,8.15
2023-05-21T09:38:23.798Z,8.52
2023-05-21T09:40:56.277Z,6.47
2023-05-21T09:43:24.130Z,7.35
2023-05-21T09:45:53.446Z,7.25
2023-05-21T09:48:35.556Z,8.50
2023-05-21T09:51:11.018Z,6.03
2023-05-21T09:53:45.457Z,7.50
2023-05-21T09:56:14.572Z,6.22
2023-05-21T09:58:42.468Z,7.53
2023-05-21T10:01:12.228Z,7.25
2023-05-21T10:03:41.183Z,6.20
2023-05-21T10:06:10.477Z,6.55
2023-05-21T10:08:45.498Z,9.13
2023-05-21T10:11:15.396Z,7.97
2023-05-21T10:13:51.617Z,6.32
2023-05-21T10:16:19.478Z,7.40
2023-05-21T10:18:49.611Z,8.00
2023-05-21T10:21:18.693Z,8.07
2023-05-21T10:23:47.539Z,9.77
2023-05-21T10:26:17.372Z,6.32
2023-05-21T10:28:45.637Z,7.75
2023-05-21T10:31:13.695Z,8.52
2023-05-21T10:33:43.208Z,8.52
2023-05-21T10:36:11.192Z,7.22
2023-05-21T10:38:40.065Z,8.32
2023-05-21T10:41:09.288Z,8.95
2023-05-21T10:43:49.232Z,8.50
2023-05-21T10:46:53.193Z,7.60
2023-05-21T10:49:38.364Z,7.05
2023-05-21T10:52:19.634Z,7.88
2023-05-21T10:55:03.098Z,8.38
2023-05-21T10:57:54.944Z,8.82
2023-05-21T11:00:26.786Z,7.78
2023-05-21T11:02:55.294Z,7.60
2023-05-21T11:05:39.689Z,6.60
2023-05-21T11:08:22.323Z,8.75
2023-05-21T11:10:54.747Z,8.70
2023-05-21T11:13:23.597Z,7.45
2023-05-21T11:16:09.234Z,7.38
2023-05-21T11:19:00.077Z,6.07
2023-05-21T11:21:31.755Z,7.88
2023-05-21T11:24:10.926Z,7.55
2023-05-21T11:27:04.380Z,7.55
2023-05-21T11:29:44.247Z,9.48
2023-05-21T11:32:15.339Z,8.13
2023-05-21T11:34:47.544Z,7.82
2023-05-21T11:37:30.351Z,8.18
2023-05-21T11:40:20.442Z,6.18
2023-05-21T11:42:53.067Z,7.22
2023-05-21T11:45:21.999Z,9.00
2023-05-21T11:47:52.091Z,8.93
2023-05-21T11:50:20.821Z,10.38
2023-05-21T11:52:50.452Z,10.27
2023-05-21T11:55:22.981Z,8.10
2023-05-21T11:57:55.096Z,6.13
2023-05-21T12:00:23.094Z,9.05
2023-05-21T12:02:55.453Z,7.25
2023-05-21T12:05:23.805Z,8.88
2023-05-21T12:07:51.612Z,6.28
2023-05-21T12:10:22.531Z,7.88
2023-05-21T12:12:56.369Z,7.97
2023-05-21T12:15:26.515Z,8.05
2023-05-21T12:17:56.372Z,7.28
2023-05-21T12:20:24.366Z,8.00
2023-05-21T12:22:52.186Z,7.63
2023-05-21T12:25:21.191Z,5.97
2023-05-21T12:27:52.707Z,6.00
2023-05-21T12:30:21.897Z,6.30
2023-05-21T12:32:49.963Z,9.35
2023-05-21T12:37:53.472Z,7.43
2023-05-21T12:42:50.927Z,9.40
2023-05-21T12:45:19.115Z,8.93
2023-05-21T12:47:50.555Z,7.97
2023-05-21T12:50:22.128Z,6.93
2023-05-21T12:52:55.128Z,7.38
2023-05-21T12:55:26.858Z,7.47
2023-05-21T12:58:08.202Z,7.22
2023-05-21T13:00:36.555Z,7.25
2023-05-21T13:05:34.883Z,6.15
2023-05-21T13:10:31.548Z,5.93
2023-05-21T13:12:59.354Z,5.95
2023-05-21T13:15:27.099Z,7.88
2023-05-21T13:17:56.742Z,7.63
2023-05-21T13:20:27.403Z,10.43
2023-05-21T13:22:55.435Z,8.98
2023-05-21T13:25:28.947Z,6.75
2023-05-21T13:27:57.401Z,9.70
2023-05-21T13:30:25.337Z,7.18
2023-05-21T13:37:48.829Z,8.05
2023-05-21T13:40:17.584Z,10.35
2023-05-21T13:42:48.801Z,9.05
2023-05-21T13:45:19.931Z,9.23
2023-05-21T13:47:48.978Z,5.25
2023-05-21T13:50:17.549Z,5.18
2023-05-21T13:52:46.011Z,5.72
2023-05-21T13:55:15.802Z,4.95
2023-05-21T13:57:43.832Z,7.25
2023-05-21T14:00:15.798Z,6.05
2023-05-21T14:02:44.959Z,5.72
2023-05-21T14:05:13.600Z,8.18
2023-05-21T14:07:41.824Z,4.88
2023-05-21T14:10:10.187Z,7.05
2023-05-21T14:12:38.512Z,7.00
2023-05-21T14:15:07.653Z,10.32
2023-05-21T14:17:36.852Z,8.13
2023-05-21T14:20:05.106Z,6.03
2023-05-21T14:22:33.009Z,6.25
2023-05-21T14:27:28.395Z,6.18
2023-05-21T14:29:56.185Z,7.43
2023-05-21T14:32:24.085Z,6.95
2023-05-21T14:34:53.300Z,7.40
2023-05-21T14:37:21.190Z,10.90
2023-05-21T14:42:17.006Z,8.10
2023-05-21T14:44:45.008Z,6.57
2023-05-21T14:47:12.761Z,5.47
2023-05-21T14:49:40.538Z,7.60
2023-05-21T14:52:09.861Z,5.47
2023-05-21T14:54:38.555Z,7.20
2023-05-21T14:57:06.635Z,8.52
2023-05-21T14:59:34.370Z,7.97
2023-05-21T15:02:02.426Z,6.53
2023-05-21T15:04:30.330Z,8.55
2023-05-21T15:06:58.020Z,10.27
2023-05-21T15:09:27.126Z,6.53
2023-05-21T15:11:54.878Z,7.90
2023-05-21T15:14:22.659Z,9.02
2023-05-21T15:16:50.503Z,7.15
2023-05-21T15:19:18.401Z,10.27
2023-05-21T15:21:46.207Z,7.07
2023-05-21T15:24:13.972Z,7.47
2023-05-21T15:26:43.058Z,8.15
2023-05-21T15:29:10.796Z,5.55
2023-05-21T15:31:39.450Z,8.23
2023-05-21T15:34:07.170Z,6.28
2023-05-21T15:36:35.093Z,9.55
2023-05-21T15:39:03.552Z,8.10
2023-05-21T15:41:31.287Z,7.80
2023-05-21T15:44:00.364Z,7.68
2023-05-21T15:46:28.106Z,8.40
2023-05-21T15:48:55.892Z,9.88
2023-05-21T15:51:23.534Z,11.82
2023-05-21T15:53:51.251Z,10.50
2023-05-21T15:56:19.021Z,7.68
2023-05-21T15:58:46.742Z,6.35
2023-05-21T16:01:15.869Z,8.60
2023-05-21T16:03:43.670Z,7.28
2023-05-21T16:06:11.632Z,10.18
2023-05-21T16:08:39.407Z,9.20
2023-05-21T16:11:07.321Z,5.95
2023-05-21T16:13:35.057Z,10.75
2023-05-21T16:16:02.768Z,7.82
2023-05-21T16:18:31.965Z,8.23
2023-05-21T16:20:59.723Z,11.00
2023-05-21T16:23:27.467Z,9.80
2023-05-21T16:25:55.305Z,11.45
2023-05-21T16:28:24.396Z,9.52
2023-05-21T16:30:52.344Z,7.72
2023-05-21T16:33:20.491Z,9.80
2023-05-21T16:35:49.584Z,9.23
2023-05-21T16:38:17.288Z,6.57
2023-05-21T16:40:47.155Z,8.73
2023-05-21T16:43:15.121Z,10.32
2023-05-21T16:45:44.820Z,11.25
2023-05-21T16:48:13.456Z,12.00
2023-05-21T16:50:41.638Z,13.43
2023-05-21T16:53:11.423Z,8.50
2023-05-21T16:55:39.849Z,8.10
2023-05-21T16:58:09.290Z,11.30
2023-05-21T17:00:37.352Z,8.93
2023-05-21T17:03:05.353Z,8.40
2023-05-21T17:05:33.198Z,11.13
2023-05-21T17:08:00.857Z,8.93
2023-05-21T17:10:31.003Z,9.80
2023-05-21T17:13:01.736Z,10.63
2023-05-21T17:15:31.976Z,14.45
2023-05-21T17:17:59.757Z,12.45
2023-05-21T17:20:27.588Z,11.57
2023-05-21T17:22:55.296Z,10.25
2023-05-21T17:25:25.031Z,9.20
2023-05-21T17:27:54.731Z,10.30
2023-05-21T17:30:22.524Z,13.77
2023-05-21T17:32:50.323Z,10.88
2023-05-21T17:35:18.078Z,13.30
2023-05-21T17:37:47.197Z,11.00
2023-05-21T17:40:15.168Z,8.13
2023-05-21T17:42:42.925Z,12.40
2023-05-21T17:45:12.604Z,13.73
2023-05-21T17:47:40.301Z,9.38
2023-05-21T17:50:09.525Z,13.57
2023-05-21T17:52:37.266Z,9.30
2023-05-21T17:55:05.427Z,10.80
2023-05-21T17:57:33.214Z,11.95
2023-05-21T18:00:00.985Z,11.20
2023-05-21T18:02:30.183Z,11.05
2023-05-21T18:04:58.003Z,10.18
2023-05-21T18:07:25.768Z,11.60
2023-05-21T18:09:53.591Z,9.20
2023-05-21T18:12:21.382Z,14.63
2023-05-21T18:14:49.394Z,13.63
2023-05-21T18:17:17.103Z,12.55
2023-05-21T18:19:46.243Z,13.52
2023-05-21T18:22:14.036Z,12.82
2023-05-21T18:24:41.783Z,13.07
2023-05-21T18:27:09.519Z,12.13
2023-05-21T18:29:37.759Z,15.10
2023-05-21T18:32:06.373Z,11.88
2023-05-21T18:34:34.244Z,12.70
2023-05-21T18:37:03.362Z,14.30
2023-05-21T18:39:31.142Z,15.45
2023-05-21T18:42:12.170Z,14.48
2023-05-21T18:44:41.624Z,13.90
2023-05-21T18:47:09.386Z,15.50
2023-05-21T18:49:37.301Z,12.68
2023-05-21T18:52:07.164Z,17.55
2023-05-21T18:54:34.904Z,14.52
2023-05-21T18:57:02.952Z,15.50
2023-05-21T18:59:31.273Z,14.10
2023-05-21T19:01:59.178Z,14.27
2023-05-21T19:04:27.373Z,19.10
2023-05-21T19:06:55.056Z,18.65
2023-05-21T19:09:24.187Z,21.33
2023-05-21T19:11:52.062Z,15.07
2023-05-21T19:14:20.324Z,15.90
2023-05-21T19:16:48.141Z,16.02
2023-05-21T19:19:16.526Z,16.60
2023-05-21T19:24:12.079Z,16.60
2023-05-21T19:26:41.156Z,16.13
2023-05-21T19:29:09.568Z,16.27
2023-05-21T19:31:37.399Z,14.27
2023-05-21T19:34:10.371Z,13.27
2023-05-21T19:36:51.669Z,18.75
2023-05-21T19:39:21.000Z,19.23
2023-05-21T19:41:50.464Z,14.32
2023-05-21T19:44:18.364Z,19.60
2023-05-21T19:46:46.088Z,17.27
2023-05-21T19:49:15.813Z,17.38
2023-05-21T19:51:43.741Z,13.43
2023-05-21T19:54:11.426Z,15.80
2023-05-21T19:56:39.278Z,12.98
2023-05-21T19:59:08.464Z,14.50
2023-05-21T20:01:39.271Z,16.03
2023-05-21T20:04:07.573Z,13.90
2023-05-21T20:06:35.506Z,16.38
2023-05-21T20:09:03.292Z,15.45
2023-05-21T20:11:31.148Z,13.77
2023-05-21T20:13:58.938Z,12.52
2023-05-21T20:16:28.168Z,15.43
2023-05-21T20:18:56.926Z,14.13
2023-05-21T20:21:25.673Z,15.57
2023-05-21T20:23:54.541Z,12.17
2023-05-21T20:26:23.165Z,17.20
2023-05-21T20:28:50.947Z,13.97
2023-05-21T20:31:18.790Z,14.55
2023-05-21T20:33:50.500Z,16.30
2023-05-21T20:36:18.477Z,14.20
2023-05-21T20:38:47.206Z,16.15
2023-05-21T20:41:15.072Z,14.80
2023-05-21T20:43:45.263Z,16.27
2023-05-21T20:46:13.544Z,15.37
2023-05-21T20:48:41.787Z,13.43
2023-05-21T20:51:11.126Z,16.73
2023-05-21T20:53:38.828Z,18.63
2023-05-21T20:56:07.963Z,15.23
2023-05-21T20:58:35.959Z,20.90
2023-05-21T21:01:03.921Z,19.95
2023-05-21T21:03:34.325Z,17.00
2023-05-21T21:06:03.165Z,17.87
2023-05-21T21:08:34.618Z,19.83
2023-05-21T21:11:02.331Z,18.70
2023-05-21T21:13:30.070Z,13.35
2023-05-21T21:15:57.784Z,16.52
2023-05-21T21:18:25.568Z,20.50
2023-05-21T21:20:53.975Z,16.25
2023-05-21T21:23:22.118Z,16.67
2023-05-21T21:25:51.435Z,16.20
2023-05-21T21:28:19.804Z,16.70
2023-05-21T21:30:47.515Z,15.63
2023-05-21T21:33:16.358Z,18.25
2023-05-21T21:35:44.198Z,14.27
2023-05-21T21:38:11.945Z,18.60
2023-05-21T21:40:39.828Z,12.88
2023-05-21T21:43:09.136Z,13.93
2023-05-21T21:45:36.891Z,12.67
2023-05-21T21:48:04.867Z,16.05
2023-05-21T21:50:32.557Z,20.23
2023-05-21T21:53:01.222Z,18.40
2023-05-21T21:55:29.607Z,18.87
2023-05-21T21:57:57.336Z,13.90
2023-05-21T22:00:26.934Z,13.85
2023-05-21T22:02:54.814Z,17.47
2023-05-21T22:05:22.709Z,14.77
2023-05-21T22:07:50.548Z,14.40
2023-05-21T22:10:18.679Z,15.15
2023-05-21T22:12:47.060Z,19.50
2023-05-21T22:15:20.149Z,19.52
2023-05-21T22:17:49.936Z,21.37
2023-05-21T22:20:18.487Z,14.87
2023-05-21T22:22:47.038Z,19.33
2023-05-21T22:27:43.152Z,20.95
2023-05-21T22:30:11.699Z,19.45
2023-05-21T22:35:12.615Z,20.15
2023-05-21T22:37:40.422Z,19.47
2023-05-21T22:40:09.730Z,21.58
2023-05-21T22:42:38.110Z,20.27
2023-05-21T22:45:06.754Z,18.48
2023-05-21T22:47:37.201Z,17.13
2023-05-21T22:50:05.396Z,17.80
2023-05-21T22:52:35.385Z,19.25
2023-05-21T22:55:03.371Z,17.60
2023-05-21T22:57:31.132Z,19.77
2023-05-21T22:59:58.988Z,17.85
2023-05-21T23:02:26.969Z,17.92
2023-05-21T23:04:54.773Z,25.08
2023-05-21T23:07:22.451Z,24.13
2023-05-21T23:09:52.180Z,18.67
2023-05-21T23:12:19.941Z,19.90
2023-05-21T23:14:48.118Z,19.95
2023-05-21T23:17:15.959Z,18.92
2023-05-21T23:19:43.721Z,21.02
2023-05-21T23:22:11.553Z,20.52
2023-05-21T23:24:39.419Z,21.70
2023-05-21T23:27:08.483Z,22.38
2023-05-21T23:29:36.365Z,24.80
2023-05-21T23:32:05.196Z,23.63
2023-05-21T23:34:33.268Z,21.20
2023-05-21T23:37:01.009Z,28.67
2023-05-21T23:39:29.130Z,24.33
2023-05-21T23:41:56.890Z,18.70
2023-05-21T23:44:25.998Z,21.38
2023-05-21T23:46:53.723Z,22.00
2023-05-21T23:49:21.448Z,28.60
2023-05-21T23:51:50.649Z,22.92
2023-05-21T23:54:18.569Z,16.97
2023-05-21T23:56:46.894Z,21.65
2023-05-21T23:59:16.304Z,19.55
